Matthews, Indiana
Current Conditions -  °F | °C
As of 4:55 AM on Saturday 25 Oct 2014 (Local Time) from KMZZ Reporting Station
Haze Haze  
Wind Chill: 52°   Ceiling: 3900
Heat Index: 52°   Visibility: 5mi
Dew Point: 49°   Wind: 5mph
Humidity: 92%   Direction: 200°SSW
Pressure: 29.95"   Gusts: NA
Location:  40.39°N, 85.5°W
Report Text: KMZZ 250855Z AUTO 20004KT 5SM BR OVC039 11/10 A2995 RMK AO2 T01090097
Loading
Personal Weather Stations






























Interactive Weather Map
Tropical Storm Tracking
New forecast layout! Learn more

10-Day Weather Forecast

Advertisements
Track Severe Weather on mobile